Terminal Aerodrome Forecast
Issued by NWS Cleveland, OH

Home | Current Version | Previous Version | Graphics & Text | Print | Product List | Glossary On
Versions: 1 2 3 4 5 6 7 8 9 10 11 12 13 14 15
000
FTUS41 KCLE 221726
TAFTOL
TAF
KTOL 221726Z 2218/2318 22012KT P6SM VCSH BKN150 BKN250
     FM222000 21012KT P6SM SCT035 BKN090
     FM230700 20012KT P6SM -SHRA SCT015 OVC025
     FM231000 21010KT 6SM -SHRA VCTS BKN015CB OVC025
     FM231600 24012KT P6SM -SHRA VCTS OVC015CB=

USA.gov is the U.S. government's official web portal to all federal, state and local government web resources and services.